Time;durP1;ratioP1;P1;durP2;ratioP2;P2;SDS_P1;SDS_P2;PMS_P1;PMS_P2;Temp;Humidity;BMP_temperature;BMP_pressure;BME280_temperature;BME280_humidity;BME280_pressure;Samples;Min_cycle;Max_cycle;Signal;HPM_P1;HPM_P2
2021/01/22 00:00:49;;;;;;;1.60;1.20;;;9.50;99.90;;;;;;5033104;28;20236;-70
2021/01/22 00:03:14;;;;;;;2.10;1.17;;;9.50;99.90;;;;;;5025496;28;20175;-70
2021/01/22 00:05:40;;;;;;;2.97;1.20;;;9.50;99.90;;;;;;5029277;28;20206;-68
2021/01/22 00:08:05;;;;;;;1.10;1.00;;;9.40;99.90;;;;;;5026028;28;20206;-69
2021/01/22 00:10:31;;;;;;;1.67;1.33;;;9.40;99.90;;;;;;5032297;28;20194;-70
2021/01/22 00:12:57;;;;;;;1.40;1.30;;;9.40;99.90;;;;;;5030798;28;20187;-70
2021/01/22 00:15:22;;;;;;;1.20;1.10;;;9.40;99.90;;;;;;5029655;28;20627;-69
2021/01/22 00:17:48;;;;;;;3.40;1.57;;;9.40;99.90;;;;;;5031159;28;20190;-69
2021/01/22 00:20:13;;;;;;;1.57;1.17;;;9.40;99.90;;;;;;5025972;28;20179;-71
2021/01/22 00:22:39;;;;;;;1.17;1.07;;;9.40;99.90;;;;;;5019102;28;20178;-70
2021/01/22 00:25:05;;;;;;;1.10;1.00;;;9.30;99.90;;;;;;5018726;28;20191;-70
2021/01/22 00:27:30;;;;;;;1.57;1.30;;;9.30;99.90;;;;;;5023689;28;20202;-71
2021/01/22 00:29:56;;;;;;;1.30;1.13;;;9.20;99.90;;;;;;5027120;28;20530;-70
2021/01/22 00:32:21;;;;;;;1.20;1.10;;;9.20;99.90;;;;;;5032588;28;20186;-69
2021/01/22 00:34:47;;;;;;;1.10;1.00;;;9.10;99.90;;;;;;5016964;28;20249;-70
2021/01/22 00:37:14;;;;;;;1.73;1.20;;;9.10;99.90;;;;;;5030086;28;20202;-70
2021/01/22 00:39:39;;;;;;;1.13;1.00;;;9.00;99.90;;;;;;5026632;28;20209;-70
2021/01/22 00:42:05;;;;;;;1.10;1.00;;;8.90;99.90;;;;;;5027927;28;20437;-71
2021/01/22 00:44:31;;;;;;;2.20;1.33;;;8.90;99.90;;;;;;5027300;28;20596;-69
2021/01/22 00:46:57;;;;;;;0.90;0.80;;;8.90;99.90;;;;;;5031837;28;20518;-69
2021/01/22 00:49:23;;;;;;;0.90;0.90;;;8.90;99.90;;;;;;5023443;28;20268;-69
2021/01/22 00:51:49;;;;;;;1.07;0.97;;;8.90;99.90;;;;;;5024292;28;20175;-69
2021/01/22 00:54:14;;;;;;;1.70;0.80;;;8.90;99.90;;;;;;5020640;28;21027;-69
2021/01/22 00:56:40;;;;;;;1.43;1.13;;;8.90;99.90;;;;;;5030755;28;20202;-71
2021/01/22 00:59:06;;;;;;;0.80;0.80;;;8.90;99.90;;;;;;5029156;28;20178;-70
2021/01/22 01:01:32;;;;;;;1.90;1.10;;;8.80;99.90;;;;;;5030293;28;20201;-70
2021/01/22 01:03:57;;;;;;;1.73;1.40;;;8.80;99.90;;;;;;5029211;28;20648;-70
2021/01/22 01:06:23;;;;;;;1.17;1.00;;;8.80;99.90;;;;;;5020920;28;20175;-70
2021/01/22 01:08:49;;;;;;;0.80;0.70;;;8.80;99.90;;;;;;5029567;28;20257;-70
2021/01/22 01:11:15;;;;;;;1.20;1.10;;;8.80;99.90;;;;;;5031528;28;20584;-69
2021/01/22 01:13:40;;;;;;;1.23;1.10;;;8.80;99.90;;;;;;5029410;28;20569;-69
2021/01/22 01:16:06;;;;;;;1.67;1.10;;;8.80;99.90;;;;;;5028604;28;20879;-71
2021/01/22 01:18:31;;;;;;;2.37;1.33;;;8.80;99.90;;;;;;5029772;28;20192;-69
2021/01/22 01:20:57;;;;;;;1.23;1.03;;;8.80;99.90;;;;;;5031164;28;20702;-69
2021/01/22 01:23:22;;;;;;;1.27;1.17;;;8.70;99.90;;;;;;5025744;28;20715;-70
2021/01/22 01:25:48;;;;;;;0.83;0.83;;;8.70;99.90;;;;;;5028607;28;20186;-70
2021/01/22 01:28:13;;;;;;;0.77;0.70;;;8.70;99.90;;;;;;5026580;28;20278;-71
2021/01/22 01:30:39;;;;;;;1.97;1.13;;;8.70;99.90;;;;;;5030392;28;20549;-68
2021/01/22 01:33:05;;;;;;;1.27;0.80;;;8.80;99.90;;;;;;5030037;28;20170;-70
2021/01/22 01:35:30;;;;;;;0.80;0.80;;;8.80;99.90;;;;;;5030594;28;20171;-70
2021/01/22 01:37:56;;;;;;;0.83;0.83;;;8.80;99.90;;;;;;5030696;28;20198;-70
2021/01/22 01:40:21;;;;;;;1.23;0.90;;;8.90;99.90;;;;;;5025364;28;20642;-69
2021/01/22 01:42:47;;;;;;;0.90;0.67;;;8.90;99.90;;;;;;5019330;28;20193;-70
2021/01/22 01:45:14;;;;;;;0.90;0.90;;;9.00;99.90;;;;;;5026609;28;20723;-69
2021/01/22 01:47:40;;;;;;;0.87;0.70;;;9.00;99.90;;;;;;5030776;28;20202;-70
2021/01/22 01:50:07;;;;;;;1.00;1.00;;;9.00;99.90;;;;;;5029024;28;20456;-70
2021/01/22 01:52:32;;;;;;;0.87;0.83;;;9.00;99.90;;;;;;5029966;28;20559;-70
2021/01/22 01:54:58;;;;;;;1.10;1.10;;;8.90;99.90;;;;;;5023759;28;20437;-71
2021/01/22 01:57:24;;;;;;;0.80;0.77;;;8.90;99.90;;;;;;5023824;28;20569;-70
2021/01/22 01:59:50;;;;;;;1.43;0.90;;;9.00;99.90;;;;;;5026270;28;20440;-70
2021/01/22 02:02:15;;;;;;;1.07;0.97;;;9.00;99.90;;;;;;5022793;28;20233;-71
2021/01/22 02:04:41;;;;;;;0.80;0.80;;;9.00;99.90;;;;;;5028151;28;20201;-71
2021/01/22 02:07:06;;;;;;;1.53;1.00;;;9.10;99.90;;;;;;5027833;28;20264;-70
2021/01/22 02:09:32;;;;;;;0.80;0.80;;;9.10;99.90;;;;;;5029699;28;20245;-69
2021/01/22 02:11:59;;;;;;;0.87;0.73;;;9.10;99.90;;;;;;5028904;28;20634;-70
2021/01/22 02:14:26;;;;;;;0.73;0.70;;;9.10;99.90;;;;;;5030104;28;20515;-70
2021/01/22 02:16:52;;;;;;;1.07;0.80;;;9.10;99.90;;;;;;5022633;28;20874;-70
2021/01/22 02:19:27;;;;;;;2.00;0.90;;;9.00;99.90;;;;;;5030361;28;20440;-69
2021/01/22 02:21:53;;;;;;;1.50;1.40;;;9.00;99.90;;;;;;5016756;28;20455;-71
2021/01/22 02:24:22;;;;;;;1.40;1.13;;;9.00;99.90;;;;;;5021118;28;20445;-69
2021/01/22 02:27:04;;;;;;;1.07;1.00;;;9.00;99.90;;;;;;5025307;28;20612;-70
2021/01/22 02:29:31;;;;;;;1.00;0.90;;;8.90;99.90;;;;;;5016710;28;20611;-70
2021/01/22 02:32:02;;;;;;;1.20;1.10;;;8.90;99.90;;;;;;5029646;28;20439;-70
2021/01/22 02:34:30;;;;;;;1.67;0.97;;;8.90;99.90;;;;;;5023997;28;20433;-71
2021/01/22 02:36:59;;;;;;;1.30;1.20;;;9.00;99.90;;;;;;5020689;28;20511;-69
2021/01/22 02:39:47;;;;;;;1.10;1.00;;;9.00;99.90;;;;;;4996292;28;20436;-70
2021/01/22 02:42:14;;;;;;;1.20;1.10;;;9.00;99.90;;;;;;5011059;28;20811;-70
2021/01/22 02:44:40;;;;;;;1.77;1.20;;;8.90;99.90;;;;;;5020259;28;20440;-71
2021/01/22 02:47:08;;;;;;;2.20;1.20;;;8.90;99.90;;;;;;5028161;28;20440;-69
2021/01/22 02:49:34;;;;;;;2.70;1.67;;;8.90;99.90;;;;;;5029667;28;20201;-70
2021/01/22 02:52:00;;;;;;;2.70;1.07;;;8.80;99.90;;;;;;5021908;28;20460;-70
2021/01/22 02:54:26;;;;;;;1.83;1.20;;;8.80;99.90;;;;;;5028036;28;20471;-70
2021/01/22 02:57:14;;;;;;;0.93;0.90;;;8.80;99.90;;;;;;5024212;28;20236;-71
2021/01/22 02:59:56;;;;;;;1.33;1.10;;;8.80;99.90;;;;;;5020949;28;20523;-71
2021/01/22 03:02:33;;;;;;;2.57;1.07;;;8.70;99.90;;;;;;5023901;28;20438;-70
2021/01/22 03:05:00;;;;;;;6.13;1.20;;;8.70;99.90;;;;;;5028210;28;20443;-69
2021/01/22 03:07:33;;;;;;;1.20;1.10;;;8.60;99.90;;;;;;5022786;28;20476;-70
2021/01/22 03:10:00;;;;;;;3.03;1.00;;;8.60;99.90;;;;;;5017818;28;20460;-70
2021/01/22 03:12:27;;;;;;;2.20;1.30;;;8.50;99.90;;;;;;5021222;28;20437;-70
2021/01/22 03:14:54;;;;;;;2.90;1.10;;;8.50;99.90;;;;;;5027067;28;20522;-70
2021/01/22 03:17:19;;;;;;;1.33;1.23;;;8.50;99.90;;;;;;5027742;28;20863;-70
2021/01/22 03:19:47;;;;;;;1.57;1.10;;;8.40;99.90;;;;;;5028370;28;20472;-69
2021/01/22 03:22:14;;;;;;;2.43;1.00;;;8.40;99.90;;;;;;5030186;28;20174;-70
2021/01/22 03:24:40;;;;;;;1.87;1.40;;;8.40;99.90;;;;;;5033604;28;20459;-68
2021/01/22 03:27:06;;;;;;;1.30;1.20;;;8.30;99.90;;;;;;5030401;28;20975;-70
2021/01/22 03:29:32;;;;;;;1.10;1.00;;;8.30;99.90;;;;;;5031711;28;20475;-69
2021/01/22 03:32:01;;;;;;;2.00;1.17;;;8.30;99.90;;;;;;5027237;28;20186;-70
2021/01/22 03:34:26;;;;;;;1.53;1.10;;;8.30;99.90;;;;;;5021548;28;20434;-71
2021/01/22 03:36:54;;;;;;;1.13;1.00;;;8.30;99.90;;;;;;5029008;28;21028;-70
2021/01/22 03:39:20;;;;;;;2.30;1.90;;;8.20;99.90;;;;;;5033371;28;20224;-69
2021/01/22 03:41:46;;;;;;;2.53;1.50;;;8.30;99.90;;;;;;5032940;28;20476;-71
2021/01/22 03:44:11;;;;;;;3.40;1.47;;;8.30;99.90;;;;;;5032271;28;20847;-71
2021/01/22 03:46:37;;;;;;;3.03;1.27;;;8.30;99.90;;;;;;5024845;28;20226;-70
2021/01/22 03:49:02;;;;;;;3.63;1.43;;;8.30;99.90;;;;;;5024659;28;20235;-69
2021/01/22 03:51:29;;;;;;;2.20;1.13;;;8.30;99.90;;;;;;5027059;28;20171;-70
2021/01/22 03:53:54;;;;;;;1.97;1.17;;;8.30;99.90;;;;;;5015953;28;20177;-69
2021/01/22 03:56:20;;;;;;;3.13;1.47;;;8.30;99.90;;;;;;5028178;28;20967;-70
2021/01/22 03:58:45;;;;;;;2.10;1.57;;;8.30;99.90;;;;;;5028639;28;20167;-70
2021/01/22 04:01:11;;;;;;;1.93;1.33;;;8.30;99.90;;;;;;5032672;28;20185;-69
2021/01/22 04:03:36;;;;;;;2.60;1.50;;;8.30;99.90;;;;;;5026625;28;20175;-70
2021/01/22 04:06:02;;;;;;;2.00;1.20;;;8.20;99.90;;;;;;5027882;28;20205;-68
2021/01/22 04:08:27;;;;;;;1.70;1.23;;;8.20;99.90;;;;;;5032605;28;20643;-70
2021/01/22 04:10:53;;;;;;;1.90;0.97;;;8.20;99.90;;;;;;5019639;28;20219;-69
2021/01/22 04:13:19;;;;;;;4.17;1.33;;;8.20;99.90;;;;;;5031096;28;20175;-71
2021/01/22 04:15:44;;;;;;;2.83;1.83;;;8.20;99.90;;;;;;5030677;28;20186;-70
2021/01/22 04:18:10;;;;;;;1.80;1.37;;;8.20;99.90;;;;;;5030387;28;20209;-69
2021/01/22 04:20:35;;;;;;;2.47;1.13;;;8.20;99.90;;;;;;5027995;28;20837;-71
2021/01/22 04:23:01;;;;;;;2.60;1.30;;;8.20;99.90;;;;;;5025526;28;20186;-70
2021/01/22 04:25:26;;;;;;;2.20;1.20;;;8.20;99.90;;;;;;5026162;28;20190;-68
2021/01/22 04:27:52;;;;;;;3.80;1.80;;;8.20;99.90;;;;;;5032217;28;20245;-70
2021/01/22 04:30:18;;;;;;;2.43;1.37;;;8.20;99.90;;;;;;5025725;28;20213;-70
2021/01/22 04:32:43;;;;;;;1.70;1.20;;;8.20;99.90;;;;;;5024162;28;20595;-70
2021/01/22 04:35:15;;;;;;;1.90;1.33;;;8.20;99.90;;;;;;5031943;28;20765;-69
2021/01/22 04:37:44;;;;;;;4.20;1.27;;;8.30;99.90;;;;;;5019886;28;20241;-69
2021/01/22 04:40:11;;;;;;;2.63;2.03;;;8.30;99.90;;;;;;5022894;28;20434;-70
2021/01/22 04:42:42;;;;;;;1.90;1.30;;;8.40;99.90;;;;;;5026805;28;20974;-69
2021/01/22 04:45:13;;;;;;;2.20;1.40;;;8.50;99.90;;;;;;5031565;28;20943;-70
2021/01/22 04:47:39;;;;;;;1.10;1.00;;;8.50;99.90;;;;;;5028352;28;20457;-70
2021/01/22 04:50:06;;;;;;;2.43;1.40;;;8.50;99.90;;;;;;5031253;28;20968;-69
2021/01/22 04:52:34;;;;;;;2.40;0.90;;;8.50;99.90;;;;;;5031563;28;20441;-71
2021/01/22 04:55:01;;;;;;;0.80;0.80;;;8.50;99.90;;;;;;5022345;28;20445;-70
2021/01/22 04:57:29;;;;;;;2.30;1.30;;;8.50;99.90;;;;;;5015629;28;20463;-69
2021/01/22 04:59:55;;;;;;;1.30;1.10;;;8.60;99.90;;;;;;5022492;28;20448;-70
2021/01/22 05:02:21;;;;;;;2.03;1.03;;;8.70;99.90;;;;;;5025989;28;20796;-69
2021/01/22 05:04:48;;;;;;;1.10;0.80;;;8.70;99.90;;;;;;5024749;28;20441;-69
2021/01/22 05:07:14;;;;;;;1.37;0.80;;;8.70;99.90;;;;;;5029821;28;20304;-69
2021/01/22 05:09:40;;;;;;;1.23;1.00;;;8.70;99.90;;;;;;5021226;28;20611;-70
2021/01/22 05:12:07;;;;;;;1.60;1.27;;;8.70;99.90;;;;;;5031086;28;20304;-71
2021/01/22 05:14:36;;;;;;;1.00;0.90;;;8.70;99.90;;;;;;5029831;28;20868;-70
2021/01/22 05:17:06;;;;;;;0.70;0.60;;;8.70;99.90;;;;;;5029112;28;20832;-70
2021/01/22 05:19:35;;;;;;;1.60;1.10;;;8.70;99.90;;;;;;5018898;28;20529;-69
2021/01/22 05:22:01;;;;;;;1.87;0.60;;;8.70;99.90;;;;;;5029201;28;20449;-70
2021/01/22 05:24:28;;;;;;;2.67;1.13;;;8.70;99.90;;;;;;5025949;28;20452;-70
2021/01/22 05:27:08;;;;;;;1.60;0.70;;;8.70;99.90;;;;;;5020218;28;20456;-70
2021/01/22 05:29:35;;;;;;;0.93;0.80;;;8.70;99.90;;;;;;5028157;28;20543;-70
2021/01/22 05:32:02;;;;;;;3.07;1.07;;;8.70;99.90;;;;;;5029927;28;20437;-69
2021/01/22 05:34:45;;;;;;;7.83;1.10;;;8.70;99.90;;;;;;5028433;28;20437;-69
2021/01/22 05:37:11;;;;;;;0.60;0.57;;;8.60;99.90;;;;;;5004692;28;20468;-71
2021/01/22 05:39:36;;;;;;;1.80;0.73;;;8.60;99.90;;;;;;5026337;28;20429;-71
2021/01/22 05:42:02;;;;;;;1.27;1.00;;;8.60;99.90;;;;;;5024619;28;20182;-70
2021/01/22 05:44:28;;;;;;;0.90;0.70;;;8.60;99.90;;;;;;5018949;28;20236;-68
2021/01/22 05:47:08;;;;;;;1.07;0.70;;;8.60;99.90;;;;;;5025696;28;20461;-69
2021/01/22 05:49:53;;;;;;;1.17;0.80;;;8.60;99.90;;;;;;5027339;28;20595;-69
2021/01/22 05:52:23;;;;;;;0.67;0.67;;;8.60;99.90;;;;;;5028547;28;20463;-70
2021/01/22 05:54:49;;;;;;;0.80;0.77;;;8.60;99.90;;;;;;5027203;28;20523;-70
2021/01/22 05:57:15;;;;;;;0.77;0.77;;;8.60;99.90;;;;;;5030473;28;20506;-70
2021/01/22 05:59:41;;;;;;;0.80;0.70;;;8.60;99.90;;;;;;5031458;28;20947;-70
2021/01/22 06:02:26;;;;;;;0.70;0.70;;;8.60;99.90;;;;;;5030878;28;20170;-70
2021/01/22 06:05:18;;;;;;;2.00;0.70;;;8.60;99.90;;;;;;5031402;28;20657;-68
2021/01/22 06:07:46;;;;;;;1.63;0.90;;;8.50;99.90;;;;;;5030365;28;20496;-70
2021/01/22 06:10:13;;;;;;;2.00;0.70;;;8.50;99.90;;;;;;5030466;28;20464;-70
2021/01/22 06:13:09;;;;;;;2.50;1.07;;;8.50;99.90;;;;;;5030457;28;20793;-70
2021/01/22 06:15:35;;;;;;;1.13;0.73;;;8.50;99.90;;;;;;5013434;28;20440;-69
2021/01/22 06:18:02;;;;;;;1.33;0.80;;;8.50;99.90;;;;;;5022691;28;20975;-70
2021/01/22 06:20:29;;;;;;;0.93;0.60;;;8.50;99.90;;;;;;5030301;28;20441;-70
2021/01/22 06:23:14;;;;;;;0.73;0.73;;;8.50;99.90;;;;;;5030554;28;20433;-68
2021/01/22 06:25:44;;;;;;;1.60;1.00;;;8.50;99.90;;;;;;5017670;28;20432;-71
2021/01/22 06:28:11;;;;;;;0.90;0.70;;;8.50;99.90;;;;;;5028304;28;20539;-70
2021/01/22 06:30:37;;;;;;;0.97;0.70;;;8.50;99.90;;;;;;5026718;28;20506;-70
2021/01/22 06:33:05;;;;;;;3.37;0.90;;;8.50;99.90;;;;;;5026222;28;20944;-71
2021/01/22 06:35:33;;;;;;;1.83;0.60;;;8.50;99.90;;;;;;5027908;28;20433;-70
2021/01/22 06:37:59;;;;;;;1.90;0.90;;;8.50;99.90;;;;;;5020435;28;20452;-69
2021/01/22 06:40:25;;;;;;;2.80;0.83;;;8.50;99.90;;;;;;5018260;28;20867;-70
2021/01/22 06:42:52;;;;;;;2.67;0.80;;;8.50;99.90;;;;;;5026520;28;20521;-70
2021/01/22 06:45:22;;;;;;;0.80;0.63;;;8.50;99.90;;;;;;5029756;28;20433;-71
2021/01/22 06:48:02;;;;;;;1.60;1.17;;;8.50;99.90;;;;;;5022596;28;20514;-70
2021/01/22 06:50:29;;;;;;;2.43;1.23;;;8.50;99.90;;;;;;5030279;28;22554;-71
2021/01/22 06:53:07;;;;;;;1.63;0.80;;;8.70;99.90;;;;;;5029886;28;20445;-71
2021/01/22 06:55:34;;;;;;;2.80;0.90;;;8.80;99.90;;;;;;5026076;28;20437;-69
2021/01/22 06:58:28;;;;;;;1.17;0.60;;;8.60;99.90;;;;;;5028097;28;20452;-70
2021/01/22 07:00:56;;;;;;;4.17;1.07;;;8.50;99.90;;;;;;5026528;28;20441;-70
2021/01/22 07:03:37;;;;;;;1.50;1.20;;;8.50;99.90;;;;;;5033534;28;20467;-70
2021/01/22 07:06:04;;;;;;;0.70;0.70;;;8.40;99.90;;;;;;5015703;28;20444;-71
2021/01/22 07:08:54;;;;;;;2.40;0.80;;;8.40;99.90;;;;;;5032151;28;20609;-70
2021/01/22 07:11:20;;;;;;;2.30;1.00;;;8.40;99.90;;;;;;5025001;28;20607;-72
2021/01/22 07:13:46;;;;;;;0.77;0.70;;;8.40;99.90;;;;;;5033658;28;20535;-69
2021/01/22 07:16:23;;;;;;;0.60;0.60;;;8.40;99.90;;;;;;5029227;28;20448;-70
2021/01/22 07:18:57;;;;;;;0.80;0.80;;;8.40;99.90;;;;;;5028675;28;20484;-69
2021/01/22 07:21:22;;;;;;;1.27;0.70;;;8.40;99.90;;;;;;5033468;28;20523;-70
2021/01/22 07:23:50;;;;;;;1.40;0.90;;;8.40;99.90;;;;;;5020707;28;21068;-69
2021/01/22 07:26:16;;;;;;;5.20;1.00;;;8.40;99.90;;;;;;5018745;28;20179;-69
2021/01/22 07:28:52;;;;;;;0.87;0.67;;;8.40;99.90;;;;;;5031300;28;20444;-69
2021/01/22 07:31:50;;;;;;;2.70;1.27;;;8.50;99.90;;;;;;5030958;28;20228;-70
2021/01/22 07:34:50;;;;;;;2.30;1.00;;;8.50;99.90;;;;;;5005271;28;20510;-69
2021/01/22 07:37:24;;;;;;;1.00;0.80;;;8.60;99.90;;;;;;5023640;28;20475;-69
2021/01/22 07:39:52;;;;;;;1.10;1.00;;;8.60;99.90;;;;;;5032873;28;20425;-71
2021/01/22 07:42:23;;;;;;;4.00;2.83;;;8.60;99.90;;;;;;5028128;28;20433;-69
2021/01/22 07:44:53;;;;;;;1.73;0.90;;;8.70;99.90;;;;;;5033192;28;20443;-69
2021/01/22 07:47:30;;;;;;;1.00;0.80;;;8.80;99.90;;;;;;5032722;28;20535;-69
2021/01/22 07:50:16;;;;;;;1.87;0.80;;;9.00;99.90;;;;;;5032290;28;20471;-69
2021/01/22 07:52:46;;;;;;;0.93;0.90;;;9.30;99.90;;;;;;5020567;28;20436;-70
2021/01/22 07:55:19;;;;;;;3.00;1.30;;;9.50;99.90;;;;;;5028293;28;20455;-69
2021/01/22 07:57:46;;;;;;;1.53;0.90;;;9.60;99.90;;;;;;5024999;28;20819;-70
2021/01/22 08:00:16;;;;;;;2.50;0.70;;;9.80;99.90;;;;;;5031119;28;20445;-68
2021/01/22 08:03:00;;;;;;;2.80;1.10;;;10.00;99.90;;;;;;5031535;28;20991;-70
2021/01/22 08:05:36;;;;;;;1.73;1.63;;;10.20;99.90;;;;;;5032029;28;20967;-70
2021/01/22 08:08:19;;;;;;;2.40;1.20;;;10.40;99.90;;;;;;5026422;28;20471;-70
2021/01/22 08:10:46;;;;;;;1.50;0.83;;;10.50;99.90;;;;;;5015309;28;20469;-70
2021/01/22 08:13:12;;;;;;;1.80;0.87;;;10.60;99.90;;;;;;5022452;28;20490;-70
2021/01/22 08:15:38;;;;;;;1.00;0.97;;;10.70;99.90;;;;;;5019566;28;20540;-69
2021/01/22 08:18:06;;;;;;;1.00;0.90;;;10.90;99.90;;;;;;5025838;28;20533;-67
2021/01/22 08:20:34;;;;;;;1.33;0.90;;;11.00;99.90;;;;;;5032171;28;20190;-70
2021/01/22 08:23:00;;;;;;;1.37;0.90;;;11.20;99.90;;;;;;5022421;28;20476;-70
2021/01/22 08:25:38;;;;;;;1.33;1.03;;;11.30;99.90;;;;;;5031252;28;20944;-70
2021/01/22 08:28:06;;;;;;;2.20;1.03;;;11.50;99.90;;;;;;5024812;28;20469;-70
2021/01/22 08:30:34;;;;;;;1.40;1.10;;;11.60;99.90;;;;;;5031642;28;20473;-69
2021/01/22 08:33:00;;;;;;;1.13;1.00;;;11.60;99.90;;;;;;5026323;28;20523;-69
2021/01/22 08:35:27;;;;;;;1.27;1.10;;;11.70;99.90;;;;;;5024009;28;20507;-68
2021/01/22 08:37:54;;;;;;;2.60;1.50;;;11.70;99.90;;;;;;5030685;28;20571;-69
2021/01/22 08:40:21;;;;;;;1.40;1.27;;;11.90;99.90;;;;;;5030352;28;20444;-69
2021/01/22 08:43:01;;;;;;;1.20;1.10;;;12.00;99.90;;;;;;5031405;28;20449;-70
2021/01/22 08:45:28;;;;;;;1.13;0.80;;;12.00;99.90;;;;;;5031655;28;20433;-69
2021/01/22 08:47:54;;;;;;;1.83;1.53;;;12.30;99.90;;;;;;5030983;28;20533;-69
2021/01/22 08:50:20;;;;;;;1.50;0.97;;;12.60;99.90;;;;;;5021177;28;20507;-70
2021/01/22 08:52:46;;;;;;;1.70;1.00;;;12.80;99.90;;;;;;5032167;28;20429;-70
2021/01/22 08:55:21;;;;;;;1.33;1.10;;;12.70;99.90;;;;;;5029633;28;20478;-69
2021/01/22 08:58:03;;;;;;;2.13;1.50;;;12.70;99.90;;;;;;5022957;28;21061;-69
2021/01/22 09:00:29;;;;;;;2.20;1.40;;;13.10;99.90;;;;;;5017048;28;20432;-69
2021/01/22 09:02:56;;;;;;;1.43;0.90;;;13.00;99.90;;;;;;5019259;28;20855;-69
2021/01/22 09:05:22;;;;;;;0.70;0.70;;;13.30;99.90;;;;;;5017801;28;20440;-72
2021/01/22 09:08:08;;;;;;;1.30;1.20;;;13.50;99.90;;;;;;5021856;28;20905;-69
2021/01/22 09:10:34;;;;;;;1.40;1.10;;;13.30;99.90;;;;;;5023666;28;20459;-69
2021/01/22 09:13:27;;;;;;;3.00;1.37;;;13.40;99.90;;;;;;5028016;28;20433;-69
2021/01/22 09:16:03;;;;;;;1.63;1.53;;;13.10;99.90;;;;;;5015625;28;20485;-70
2021/01/22 09:18:29;;;;;;;2.13;1.13;;;12.70;99.90;;;;;;5024443;28;20974;-70
2021/01/22 09:21:13;;;;;;;2.27;1.20;;;12.50;99.90;;;;;;5023985;28;20440;-71
2021/01/22 09:23:39;;;;;;;1.37;1.13;;;12.50;99.90;;;;;;5020717;28;20205;-70
2021/01/22 09:26:06;;;;;;;1.20;1.10;;;12.50;99.90;;;;;;5023873;28;20567;-70
2021/01/22 09:28:31;;;;;;;1.30;1.07;;;12.40;99.90;;;;;;5028374;28;20186;-70
2021/01/22 09:30:57;;;;;;;1.37;0.80;;;12.70;99.90;;;;;;5023029;28;20995;-69
2021/01/22 09:33:22;;;;;;;1.83;1.00;;;13.10;99.90;;;;;;5025026;28;20665;-70
2021/01/22 09:35:48;;;;;;;1.83;1.27;;;13.30;99.90;;;;;;5018147;28;20827;-69
2021/01/22 09:38:14;;;;;;;2.67;1.70;;;13.70;99.90;;;;;;5025437;28;20189;-70
2021/01/22 09:40:39;;;;;;;1.30;1.20;;;14.20;99.90;;;;;;5027856;28;20529;-71
2021/01/22 09:43:05;;;;;;;2.33;1.10;;;14.60;99.90;;;;;;5031237;28;20197;-71
2021/01/22 09:45:31;;;;;;;2.00;1.20;;;15.10;99.90;;;;;;5019968;28;20206;-70
2021/01/22 09:47:56;;;;;;;1.33;1.23;;;15.40;99.90;;;;;;5026916;28;20222;-71
2021/01/22 09:50:22;;;;;;;3.20;1.57;;;15.30;99.90;;;;;;5020813;28;20699;-69
2021/01/22 09:52:49;;;;;;;2.17;1.97;;;15.20;99.90;;;;;;5030912;28;20189;-70
2021/01/22 09:55:16;;;;;;;4.50;1.50;;;15.40;99.90;;;;;;5027750;28;20171;-69
2021/01/22 09:57:42;;;;;;;1.80;1.17;;;15.10;99.90;;;;;;5030648;28;20480;-71
2021/01/22 10:00:10;;;;;;;2.10;1.33;;;14.40;99.90;;;;;;5029828;28;20433;-70
2021/01/22 10:02:36;;;;;;;1.87;1.77;;;13.70;99.90;;;;;;5029190;28;20429;-69
2021/01/22 10:05:03;;;;;;;1.63;1.10;;;13.20;99.90;;;;;;5030555;28;20510;-69
2021/01/22 10:07:29;;;;;;;1.70;1.50;;;12.80;99.90;;;;;;5028989;28;20221;-67
2021/01/22 10:09:55;;;;;;;1.67;1.57;;;12.90;99.90;;;;;;5027813;28;20464;-69
2021/01/22 10:12:20;;;;;;;3.33;1.43;;;13.30;99.90;;;;;;5018806;28;20205;-69
2021/01/22 10:14:47;;;;;;;2.30;1.37;;;13.60;99.90;;;;;;5026144;28;20852;-69
2021/01/22 10:17:13;;;;;;;1.93;1.30;;;14.00;99.90;;;;;;5026400;28;20202;-69
2021/01/22 10:19:38;;;;;;;1.37;1.07;;;13.90;99.90;;;;;;5027162;28;20452;-70
2021/01/22 10:22:04;;;;;;;2.70;2.33;;;13.40;99.90;;;;;;5025223;28;20186;-69
2021/01/22 10:24:30;;;;;;;2.60;1.20;;;13.30;99.90;;;;;;5026275;28;20672;-69
2021/01/22 10:26:56;;;;;;;2.20;1.07;;;13.30;99.90;;;;;;5026421;28;20956;-69
2021/01/22 10:29:21;;;;;;;1.67;1.50;;;13.10;99.90;;;;;;5018443;28;20189;-70
2021/01/22 10:31:47;;;;;;;2.73;1.37;;;13.30;99.90;;;;;;5024543;28;20178;-69
2021/01/22 10:34:13;;;;;;;1.20;1.10;;;13.50;99.90;;;;;;5027080;28;20281;-69
2021/01/22 10:36:38;;;;;;;2.53;1.50;;;13.50;99.90;;;;;;5015026;28;20599;-69
2021/01/22 10:39:05;;;;;;;1.40;1.20;;;13.40;99.90;;;;;;5026712;28;20177;-69
2021/01/22 10:41:31;;;;;;;2.20;1.40;;;13.80;99.90;;;;;;5026131;28;20185;-69
2021/01/22 10:43:57;;;;;;;2.40;1.40;;;15.00;99.90;;;;;;5024119;28;20441;-69
2021/01/22 10:46:22;;;;;;;1.40;1.30;;;16.20;99.90;;;;;;5021495;28;20432;-69
2021/01/22 10:48:48;;;;;;;3.87;1.80;;;17.30;98.20;;;;;;5026580;28;20601;-70
2021/01/22 10:51:13;;;;;;;2.67;1.60;;;18.10;95.00;;;;;;5026308;28;20327;-70
2021/01/22 10:53:39;;;;;;;3.03;1.10;;;18.40;92.80;;;;;;5018651;28;20638;-69
2021/01/22 10:56:05;;;;;;;2.10;1.30;;;18.10;92.90;;;;;;5024719;28;20236;-70
2021/01/22 10:58:30;;;;;;;1.27;1.00;;;18.50;91.90;;;;;;5024269;28;20272;-68
2021/01/22 11:00:57;;;;;;;2.47;1.37;;;18.40;90.70;;;;;;5019184;28;20194;-69
2021/01/22 11:03:23;;;;;;;1.03;0.93;;;17.80;91.70;;;;;;5021065;28;20185;-69
2021/01/22 11:05:48;;;;;;;5.20;1.40;;;17.10;92.50;;;;;;5006869;28;20436;-69
2021/01/22 11:08:14;;;;;;;1.83;1.10;;;16.70;94.00;;;;;;5019555;28;20217;-69
2021/01/22 11:10:40;;;;;;;3.00;1.40;;;17.00;93.40;;;;;;5024949;28;20198;-69
2021/01/22 11:13:05;;;;;;;1.80;1.07;;;16.90;93.60;;;;;;5020676;28;20186;-69
2021/01/22 11:15:33;;;;;;;1.97;1.60;;;16.50;93.90;;;;;;5015916;28;20189;-68
2021/01/22 11:17:58;;;;;;;2.53;2.33;;;15.70;95.60;;;;;;5018853;28;20276;-69
2021/01/22 11:20:24;;;;;;;1.73;1.00;;;15.10;97.20;;;;;;5022831;28;20968;-68
2021/01/22 11:22:50;;;;;;;3.10;1.50;;;14.70;98.40;;;;;;5018194;28;20251;-69
2021/01/22 11:25:17;;;;;;;2.40;1.33;;;14.30;99.60;;;;;;5015615;28;20419;-69
2021/01/22 11:27:43;;;;;;;3.00;2.03;;;14.00;99.90;;;;;;5016719;28;20287;-69
2021/01/22 11:30:10;;;;;;;1.47;1.37;;;13.80;99.90;;;;;;5015749;28;20461;-69
2021/01/22 11:32:36;;;;;;;1.40;1.30;;;13.70;99.90;;;;;;5005315;28;20868;-68
2021/01/22 11:35:03;;;;;;;2.00;1.50;;;13.70;99.90;;;;;;5011098;28;20520;-69
2021/01/22 11:37:28;;;;;;;3.20;1.60;;;13.90;99.90;;;;;;5023198;28;20818;-68
2021/01/22 11:39:54;;;;;;;2.40;1.33;;;14.10;99.90;;;;;;5026143;28;20531;-68
2021/01/22 11:42:19;;;;;;;1.50;1.37;;;14.20;99.90;;;;;;5025889;28;20190;-68
2021/01/22 11:44:46;;;;;;;1.10;1.00;;;14.20;99.90;;;;;;5026063;28;20197;-67
2021/01/22 11:47:11;;;;;;;2.90;1.67;;;13.80;99.90;;;;;;5028089;28;20293;-69
2021/01/22 11:49:37;;;;;;;3.23;1.40;;;13.60;99.90;;;;;;5022793;28;21014;-73
2021/01/22 11:52:03;;;;;;;2.20;1.03;;;13.60;99.90;;;;;;5026964;28;20808;-68
2021/01/22 11:54:28;;;;;;;4.87;2.10;;;13.60;99.90;;;;;;5029754;28;20721;-67
2021/01/22 11:56:54;;;;;;;1.30;1.20;;;13.50;99.90;;;;;;5029334;28;20411;-68
2021/01/22 11:59:20;;;;;;;2.30;1.37;;;13.30;99.90;;;;;;5016736;28;20194;-68
2021/01/22 12:01:46;;;;;;;2.47;1.70;;;13.20;99.90;;;;;;5028586;28;20262;-68
2021/01/22 12:04:12;;;;;;;2.73;1.63;;;13.40;99.90;;;;;;5030184;28;20481;-68
2021/01/22 12:06:38;;;;;;;1.43;1.10;;;13.50;99.90;;;;;;5021326;28;21391;-67
2021/01/22 12:09:05;;;;;;;5.23;1.00;;;13.60;99.90;;;;;;5019838;28;20245;-72
2021/01/22 12:11:31;;;;;;;6.90;1.60;;;13.70;99.90;;;;;;5028415;28;20460;-68
2021/01/22 12:13:57;;;;;;;2.03;1.20;;;13.80;99.90;;;;;;5030032;28;20540;-68
2021/01/22 12:16:22;;;;;;;2.27;1.10;;;13.60;99.90;;;;;;5012452;28;20581;-68
2021/01/22 12:18:48;;;;;;;1.20;1.10;;;13.50;99.90;;;;;;5025115;28;20178;-68
2021/01/22 12:21:13;;;;;;;2.27;1.00;;;13.30;99.90;;;;;;5021897;28;20193;-68
2021/01/22 12:23:41;;;;;;;1.43;1.10;;;13.30;99.90;;;;;;5030309;28;20257;-68
2021/01/22 12:26:11;;;;;;;9.50;1.40;;;13.30;99.90;;;;;;5030358;28;20608;-68
2021/01/22 12:28:38;;;;;;;2.27;1.40;;;13.40;99.90;;;;;;5030497;28;20510;-68
2021/01/22 12:31:05;;;;;;;1.00;1.00;;;13.70;99.90;;;;;;5029921;28;20492;-69
2021/01/22 12:33:31;;;;;;;1.17;1.07;;;14.40;99.90;;;;;;5029742;28;20995;-69
2021/01/22 12:35:57;;;;;;;3.37;2.07;;;15.90;98.00;;;;;;5010667;28;20440;-68
2021/01/22 12:38:22;;;;;;;2.70;2.20;;;16.10;96.30;;;;;;5027947;28;20457;-68
2021/01/22 12:40:48;;;;;;;4.87;1.10;;;16.80;95.10;;;;;;5025940;28;20553;-69
2021/01/22 12:43:14;;;;;;;3.10;1.50;;;18.20;92.00;;;;;;5029355;28;20186;-67
2021/01/22 12:45:42;;;;;;;3.70;1.70;;;19.20;86.40;;;;;;5014892;28;20186;-69
2021/01/22 12:48:08;;;;;;;4.13;2.90;;;18.40;86.80;;;;;;5027592;28;20331;-67
2021/01/22 12:50:34;;;;;;;5.03;1.30;;;17.80;88.70;;;;;;5023658;28;20841;-70
2021/01/22 12:52:59;;;;;;;2.47;1.10;;;16.60;90.50;;;;;;5025169;28;20436;-69
2021/01/22 12:55:25;;;;;;;1.70;1.20;;;15.60;92.20;;;;;;5027855;28;20968;-69
2021/01/22 12:57:51;;;;;;;1.27;1.17;;;14.90;93.80;;;;;;5028288;28;20201;-69